createdAt,value
2023-05-13T00:00:05.439Z,92360.88
2023-05-13T00:02:38.665Z,92356.47
2023-05-13T00:05:11.003Z,92364.03
2023-05-13T00:07:43.351Z,92368.47
2023-05-13T00:10:16.208Z,92378.38
2023-05-13T00:12:49.165Z,92388.91
2023-05-13T00:15:21.674Z,92394.88
2023-05-13T00:17:54.019Z,92397.69
2023-05-13T00:20:26.354Z,92404.06
2023-05-13T00:22:58.657Z,92406.16
2023-05-13T00:25:30.931Z,92409.09
2023-05-13T00:28:04.191Z,92413.38
2023-05-13T00:30:36.499Z,92416.22
2023-05-13T00:33:08.940Z,92418.06
2023-05-13T00:35:41.503Z,92420.44
2023-05-13T00:38:15.101Z,92413.63
2023-05-13T00:40:48.289Z,92412.66
2023-05-13T00:43:21.428Z,92407.06
2023-05-13T00:45:53.841Z,92402.16
2023-05-13T00:48:26.807Z,92390.94
2023-05-13T00:50:59.487Z,92392.22
2023-05-13T00:53:32.906Z,92387.19
2023-05-13T00:56:05.728Z,92384.06
2023-05-13T00:58:38.688Z,92373.38
2023-05-13T01:01:17.258Z,92379.81
2023-05-13T01:03:55.694Z,92389.31
2023-05-13T01:06:37.061Z,92399.97
2023-05-13T01:09:20.912Z,92397.44
2023-05-13T01:11:55.436Z,92402.19
2023-05-13T01:14:32.949Z,92409.47
2023-05-13T01:17:14.476Z,92405.41
2023-05-13T01:19:52.114Z,92402.91
2023-05-13T01:22:25.260Z,92413.53
2023-05-13T01:24:57.673Z,92410.91
2023-05-13T01:27:30.227Z,92419.72
2023-05-13T01:30:03.223Z,92410.41
2023-05-13T01:32:38.744Z,92416.28
2023-05-13T01:35:12.173Z,92406.63
2023-05-13T01:37:50.545Z,92416.44
2023-05-13T01:40:32.295Z,92415.09
2023-05-13T01:43:11.854Z,92416.75
2023-05-13T01:45:44.458Z,92407.66
2023-05-13T01:48:18.366Z,92412.13
2023-05-13T01:50:53.215Z,92416.19
2023-05-13T01:53:26.289Z,92414.28
2023-05-13T01:55:58.950Z,92402.28
2023-05-13T01:58:31.679Z,92403.50
2023-05-13T02:01:04.073Z,92399.88
2023-05-13T02:03:37.297Z,92397.50
2023-05-13T02:06:10.044Z,92398.22
2023-05-13T02:08:43.080Z,92395.84
2023-05-13T02:11:15.400Z,92396.63
2023-05-13T02:13:47.746Z,92399.19
2023-05-13T02:16:20.364Z,92410.56
2023-05-13T02:18:52.776Z,92412.91
2023-05-13T02:21:33.149Z,92417.56
2023-05-13T02:24:06.794Z,92415.66
2023-05-13T02:26:40.900Z,92421.13
2023-05-13T02:29:13.804Z,92430.00
2023-05-13T02:31:46.628Z,92424.03
2023-05-13T02:34:19.360Z,92422.75
2023-05-13T02:36:51.963Z,92425.38
2023-05-13T02:39:24.985Z,92429.78
2023-05-13T02:41:59.134Z,92427.75
2023-05-13T02:44:36.160Z,92436.13
2023-05-13T02:47:08.544Z,92438.22
2023-05-13T02:49:40.879Z,92430.66
2023-05-13T02:52:13.224Z,92434.56
2023-05-13T02:54:46.355Z,92433.28
2023-05-13T02:57:18.690Z,92450.19
2023-05-13T02:59:51.486Z,92455.66
2023-05-13T03:02:23.963Z,92448.66
2023-05-13T03:04:56.603Z,92453.34
2023-05-13T03:07:29.003Z,92447.66
2023-05-13T03:10:01.952Z,92446.16
2023-05-13T03:12:34.571Z,92445.84
2023-05-13T03:15:08.018Z,92451.06
2023-05-13T03:17:41.327Z,92444.81
2023-05-13T03:20:13.723Z,92438.03
2023-05-13T03:22:46.040Z,92437.97
2023-05-13T03:25:19.201Z,92436.13
2023-05-13T03:27:56.482Z,92434.50
2023-05-13T03:30:31.468Z,92442.03
2023-05-13T03:33:11.029Z,92439.91
2023-05-13T03:35:43.373Z,92443.53
2023-05-13T03:38:15.755Z,92451.56
2023-05-13T03:40:52.226Z,92460.69
2023-05-13T03:43:24.644Z,92462.72
2023-05-13T03:46:01.983Z,92464.53
2023-05-13T03:48:34.399Z,92468.88
2023-05-13T03:51:07.918Z,92467.84
2023-05-13T03:53:40.283Z,92471.44
2023-05-13T03:56:14.032Z,92483.63
2023-05-13T03:58:46.507Z,92488.84
2023-05-13T04:01:18.835Z,92486.50
2023-05-13T04:03:51.650Z,92488.34
2023-05-13T04:06:23.982Z,92495.13
2023-05-13T04:08:56.279Z,92499.50
2023-05-13T04:11:29.218Z,92500.06
2023-05-13T04:14:01.980Z,92495.97
2023-05-13T04:16:34.344Z,92499.06
2023-05-13T04:19:06.681Z,92497.50
2023-05-13T04:21:39.059Z,92497.28
2023-05-13T04:24:11.345Z,92506.69
2023-05-13T04:26:44.331Z,92503.53
2023-05-13T04:29:17.357Z,92508.63
2023-05-13T04:31:50.013Z,92520.38
2023-05-13T04:34:22.457Z,92519.91
2023-05-13T04:36:54.760Z,92514.66
2023-05-13T04:39:27.045Z,92518.31
2023-05-13T04:42:00.820Z,92522.75
2023-05-13T04:44:34.314Z,92518.63
2023-05-13T04:47:07.074Z,92512.63
2023-05-13T04:49:39.580Z,92509.69
2023-05-13T04:52:12.485Z,92514.13
2023-05-13T04:54:45.006Z,92513.31
2023-05-13T04:57:17.991Z,92503.63
2023-05-13T04:59:50.273Z,92492.63
2023-05-13T05:02:22.590Z,92496.72
2023-05-13T05:04:54.918Z,92482.38
2023-05-13T05:07:27.283Z,92495.56
2023-05-13T05:10:01.312Z,92511.94
2023-05-13T05:12:37.444Z,92513.22
2023-05-13T05:15:14.840Z,92511.44
2023-05-13T05:17:48.895Z,92516.44
2023-05-13T05:20:23.749Z,92511.81
2023-05-13T05:22:56.661Z,92521.78
2023-05-13T05:25:31.342Z,92524.91
2023-05-13T05:28:04.707Z,92517.09
2023-05-13T05:30:38.970Z,92512.97
2023-05-13T05:33:15.779Z,92514.59
2023-05-13T05:35:48.958Z,92507.88
2023-05-13T05:38:24.588Z,92519.28
2023-05-13T05:40:58.987Z,92511.28
2023-05-13T05:43:32.609Z,92524.72
2023-05-13T05:46:05.407Z,92520.72
2023-05-13T05:48:38.053Z,92526.47
2023-05-13T05:51:10.431Z,92528.88
2023-05-13T05:53:46.095Z,92530.59
2023-05-13T05:56:21.052Z,92540.22
2023-05-13T05:58:54.038Z,92534.75
2023-05-13T06:01:27.390Z,92533.13
2023-05-13T06:03:59.925Z,92533.34
2023-05-13T06:06:33.090Z,92536.38
2023-05-13T06:09:05.882Z,92534.22
2023-05-13T06:11:39.241Z,92532.94
2023-05-13T06:14:12.293Z,92539.59
2023-05-13T06:16:44.617Z,92535.13
2023-05-13T06:19:17.150Z,92544.00
2023-05-13T06:21:49.601Z,92543.25
2023-05-13T06:24:21.970Z,92537.22
2023-05-13T06:26:54.360Z,92538.22
2023-05-13T06:29:30.086Z,92547.25
2023-05-13T06:32:02.442Z,92546.34
2023-05-13T06:34:34.916Z,92549.13
2023-05-13T06:37:07.305Z,92545.72
2023-05-13T06:39:39.816Z,92538.56
2023-05-13T06:42:14.287Z,92537.41
2023-05-13T06:44:55.279Z,92529.66
2023-05-13T06:47:33.073Z,92527.13
2023-05-13T06:50:06.429Z,92530.63
2023-05-13T06:52:41.268Z,92542.47
2023-05-13T06:55:18.205Z,92532.16
2023-05-13T06:57:50.833Z,92532.16
2023-05-13T07:00:26.037Z,92539.22
2023-05-13T07:02:58.456Z,92535.31
2023-05-13T07:05:30.988Z,92541.38
2023-05-13T07:08:06.058Z,92551.41
2023-05-13T07:10:38.387Z,92549.00
2023-05-13T07:13:10.941Z,92548.00
2023-05-13T07:15:45.057Z,92553.84
2023-05-13T07:18:20.068Z,92556.56
2023-05-13T07:20:52.400Z,92579.50
2023-05-13T07:23:31.859Z,92570.03
2023-05-13T07:26:04.513Z,92564.81
2023-05-13T07:28:36.892Z,92561.78
2023-05-13T07:31:10.046Z,92563.59
2023-05-13T07:33:45.009Z,92567.38
2023-05-13T07:36:20.148Z,92559.53
2023-05-13T07:38:52.875Z,92563.63
2023-05-13T07:41:26.929Z,92569.28
2023-05-13T07:43:59.259Z,92574.22
2023-05-13T07:46:32.348Z,92574.66
2023-05-13T07:49:07.930Z,92584.38
2023-05-13T07:51:40.598Z,92585.09
2023-05-13T07:54:13.020Z,92582.66
2023-05-13T07:56:47.196Z,92570.53
2023-05-13T07:59:19.560Z,92576.28
2023-05-13T08:01:54.942Z,92572.72
2023-05-13T08:04:27.635Z,92556.84
2023-05-13T08:07:01.450Z,92570.03
2023-05-13T08:09:36.361Z,92573.06
2023-05-13T08:12:08.880Z,92575.59
2023-05-13T08:14:41.245Z,92565.97
2023-05-13T08:17:14.260Z,92559.47
2023-05-13T08:19:46.587Z,92565.19
2023-05-13T08:22:18.977Z,92567.31
2023-05-13T08:24:51.290Z,92568.19
2023-05-13T08:27:23.597Z,92559.13
2023-05-13T08:29:55.935Z,92556.13
2023-05-13T08:32:29.018Z,92558.56
2023-05-13T08:35:01.593Z,92564.44
2023-05-13T08:37:33.946Z,92564.66
2023-05-13T08:40:07.540Z,92559.97
2023-05-13T08:42:42.496Z,92547.03
2023-05-13T08:45:15.527Z,92552.44
2023-05-13T08:47:51.787Z,92550.28
2023-05-13T08:50:25.280Z,92560.44
2023-05-13T08:52:58.494Z,92556.25
2023-05-13T08:55:30.891Z,92558.13
2023-05-13T08:58:05.966Z,92555.09
2023-05-13T09:00:39.234Z,92543.03
2023-05-13T09:03:13.014Z,92533.28
2023-05-13T09:05:45.802Z,92540.94
2023-05-13T09:08:18.124Z,92542.53
2023-05-13T09:10:53.284Z,92540.75
2023-05-13T09:13:25.582Z,92541.34
2023-05-13T09:15:58.036Z,92545.50
2023-05-13T09:18:31.412Z,92540.47
2023-05-13T09:21:21.737Z,92549.34
2023-05-13T09:24:06.492Z,92544.22
2023-05-13T09:26:41.679Z,92540.00
2023-05-13T09:29:22.652Z,92551.34
2023-05-13T09:31:57.340Z,92547.03
2023-05-13T09:34:34.868Z,92550.69
2023-05-13T09:37:08.571Z,92538.88
2023-05-13T09:39:43.326Z,92530.59
2023-05-13T09:42:16.296Z,92527.97
2023-05-13T09:44:57.613Z,92529.63
2023-05-13T09:47:30.065Z,92524.09
2023-05-13T09:50:07.294Z,92519.88
2023-05-13T09:52:39.665Z,92525.97
2023-05-13T09:55:12.033Z,92526.63
2023-05-13T09:57:46.114Z,92528.81
2023-05-13T10:00:32.028Z,92527.63
2023-05-13T10:03:05.431Z,92533.00
2023-05-13T10:05:39.242Z,92522.03
2023-05-13T10:08:13.002Z,92526.88
2023-05-13T10:10:47.752Z,92525.53
2023-05-13T10:13:23.615Z,92530.16
2023-05-13T10:16:14.285Z,92536.25
2023-05-13T10:18:47.652Z,92533.28
2023-05-13T10:21:21.235Z,92526.84
2023-05-13T10:23:54.103Z,92522.97
2023-05-13T10:26:26.798Z,92529.09
2023-05-13T10:28:59.663Z,92528.91
2023-05-13T10:31:32.310Z,92526.66
2023-05-13T10:34:04.731Z,92522.19
2023-05-13T10:36:52.982Z,92531.69
2023-05-13T10:39:52.452Z,92527.00
2023-05-13T10:42:37.504Z,92516.22
2023-05-13T10:45:10.208Z,92532.16
2023-05-13T10:47:42.701Z,92526.22
2023-05-13T10:50:24.594Z,92524.50
2023-05-13T10:52:58.236Z,92523.84
2023-05-13T10:55:30.475Z,92524.78
2023-05-13T10:58:11.263Z,92532.50
2023-05-13T11:00:46.579Z,92528.97
2023-05-13T11:03:29.508Z,92518.56
2023-05-13T11:06:15.230Z,92520.88
2023-05-13T11:08:55.030Z,92518.31
2023-05-13T11:11:32.724Z,92516.06
2023-05-13T11:14:15.001Z,92496.41
2023-05-13T11:16:51.809Z,92500.78
2023-05-13T11:19:27.115Z,92508.63
2023-05-13T11:22:08.098Z,92499.03
2023-05-13T11:25:03.325Z,92503.38
2023-05-13T11:27:39.350Z,92495.16
2023-05-13T11:30:22.502Z,92504.06
2023-05-13T11:32:56.802Z,92491.09
2023-05-13T11:35:30.984Z,92489.09
2023-05-13T11:38:05.790Z,92483.50
2023-05-13T11:40:39.666Z,92496.47
2023-05-13T11:43:35.143Z,92484.88
2023-05-13T11:46:07.754Z,92495.41
2023-05-13T11:48:40.194Z,92485.03
2023-05-13T11:51:12.616Z,92492.09
2023-05-13T11:53:45.034Z,92489.56
2023-05-13T11:56:26.021Z,92480.03
2023-05-13T11:59:14.019Z,92480.44
2023-05-13T12:01:46.529Z,92479.75
2023-05-13T12:04:18.888Z,92474.72
2023-05-13T12:06:53.649Z,92464.28
2023-05-13T12:09:26.106Z,92471.09
2023-05-13T12:11:59.265Z,92478.38
2023-05-13T12:14:32.614Z,92475.38
2023-05-13T12:17:05.194Z,92487.09
2023-05-13T12:19:37.517Z,92481.59
2023-05-13T12:22:12.900Z,92478.22
2023-05-13T12:24:50.914Z,92478.13
2023-05-13T12:27:23.934Z,92475.13
2023-05-13T12:29:59.018Z,92466.88
2023-05-13T12:32:31.396Z,92468.66
2023-05-13T12:35:12.858Z,92472.56
2023-05-13T12:37:45.172Z,92471.56
2023-05-13T12:40:17.869Z,92474.31
2023-05-13T12:42:57.286Z,92465.19
2023-05-13T12:45:31.015Z,92460.75
2023-05-13T12:48:03.871Z,92454.41
2023-05-13T12:50:36.976Z,92455.13
2023-05-13T12:53:09.289Z,92455.50
2023-05-13T12:55:44.620Z,92453.06
2023-05-13T12:58:17.661Z,92463.41
2023-05-13T13:00:52.721Z,92455.91
2023-05-13T13:03:31.152Z,92457.44
2023-05-13T13:06:04.088Z,92453.22
2023-05-13T13:08:36.864Z,92457.38
2023-05-13T13:11:09.721Z,92445.84
2023-05-13T13:13:42.668Z,92442.63
2023-05-13T13:16:15.168Z,92427.75
2023-05-13T13:18:53.086Z,92432.50
2023-05-13T13:21:26.477Z,92438.03
2023-05-13T13:23:58.769Z,92427.78
2023-05-13T13:26:31.147Z,92427.69
2023-05-13T13:29:04.103Z,92420.00
2023-05-13T13:31:36.453Z,92418.13
2023-05-13T13:34:11.415Z,92418.03
2023-05-13T13:36:43.811Z,92418.72
2023-05-13T13:39:16.138Z,92421.56
2023-05-13T13:41:48.502Z,92422.59
2023-05-13T13:44:21.533Z,92419.00
2023-05-13T13:46:53.916Z,92423.03
2023-05-13T13:49:26.227Z,92415.91
2023-05-13T13:52:01.915Z,92431.66
2023-05-13T13:54:37.134Z,92431.38
2023-05-13T13:57:09.462Z,92430.56
2023-05-13T13:59:42.416Z,92434.44
2023-05-13T14:02:17.187Z,92423.47
2023-05-13T14:04:50.040Z,92422.34
2023-05-13T14:07:22.418Z,92422.63
2023-05-13T14:09:54.696Z,92427.31
2023-05-13T14:12:27.041Z,92430.59
2023-05-13T14:15:00.093Z,92425.25
2023-05-13T14:17:33.512Z,92429.34
2023-05-13T14:20:09.476Z,92431.50
2023-05-13T14:22:41.796Z,92420.66
2023-05-13T14:25:14.272Z,92425.53
2023-05-13T14:27:46.574Z,92421.78
2023-05-13T14:30:22.923Z,92421.09
2023-05-13T14:32:55.492Z,92418.53
2023-05-13T14:35:28.162Z,92420.25
2023-05-13T14:38:00.508Z,92417.44
2023-05-13T14:40:33.657Z,92413.34
2023-05-13T14:43:08.652Z,92412.06
2023-05-13T14:45:41.654Z,92416.38
2023-05-13T14:48:15.705Z,92410.03
2023-05-13T14:50:51.252Z,92404.06
2023-05-13T14:53:23.585Z,92400.66
2023-05-13T14:55:59.892Z,92404.16
2023-05-13T14:58:32.984Z,92405.78
2023-05-13T15:01:06.059Z,92410.59
2023-05-13T15:03:38.565Z,92408.00
2023-05-13T15:06:13.920Z,92409.78
2023-05-13T15:08:46.328Z,92407.53
2023-05-13T15:11:18.651Z,92414.63
2023-05-13T15:13:50.944Z,92421.25
2023-05-13T15:16:23.980Z,92414.63
2023-05-13T15:18:56.718Z,92416.50
2023-05-13T15:21:29.221Z,92420.50
2023-05-13T15:24:02.027Z,92411.69
2023-05-13T15:26:37.096Z,92410.59
2023-05-13T15:29:09.459Z,92409.50
2023-05-13T15:31:45.420Z,92419.47
2023-05-13T15:34:20.812Z,92413.81
2023-05-13T15:36:53.192Z,92414.47
2023-05-13T15:39:25.512Z,92412.13
2023-05-13T15:41:57.853Z,92415.97
2023-05-13T15:44:33.237Z,92414.25
2023-05-13T15:47:06.680Z,92407.31
2023-05-13T15:49:39.128Z,92398.88
2023-05-13T15:52:11.517Z,92399.84
2023-05-13T15:54:43.834Z,92408.19
2023-05-13T15:57:18.596Z,92399.34
2023-05-13T15:59:50.994Z,92401.00
2023-05-13T16:02:28.828Z,92407.41
2023-05-13T16:05:01.899Z,92403.22
2023-05-13T16:07:34.249Z,92405.53
2023-05-13T16:10:06.914Z,92415.22
2023-05-13T16:12:42.163Z,92412.47
2023-05-13T16:15:14.573Z,92413.13
2023-05-13T16:17:48.235Z,92416.56
2023-05-13T16:20:20.999Z,92431.06
2023-05-13T16:22:55.694Z,92423.25
2023-05-13T16:25:30.291Z,92416.97
2023-05-13T16:28:05.602Z,92417.31
2023-05-13T16:30:38.798Z,92424.66
2023-05-13T16:33:14.034Z,92414.44
2023-05-13T16:35:46.338Z,92406.06
2023-05-13T16:38:18.667Z,92415.75
2023-05-13T16:40:51.049Z,92420.63
2023-05-13T16:43:23.437Z,92423.34
2023-05-13T16:45:55.981Z,92422.47
2023-05-13T16:48:32.079Z,92429.84
2023-05-13T16:51:04.554Z,92428.84
2023-05-13T16:53:36.889Z,92438.56
2023-05-13T16:56:12.174Z,92433.06
2023-05-13T16:58:44.464Z,92427.75
2023-05-13T17:01:28.283Z,92420.16
2023-05-13T17:04:04.264Z,92421.75
2023-05-13T17:06:36.585Z,92415.28
2023-05-13T17:09:11.767Z,92415.75
2023-05-13T17:11:47.220Z,92418.31
2023-05-13T17:14:19.992Z,92421.00
2023-05-13T17:16:52.466Z,92418.25
2023-05-13T17:19:25.477Z,92408.91
2023-05-13T17:22:02.955Z,92425.47
2023-05-13T17:24:35.395Z,92418.59
2023-05-13T17:27:07.900Z,92405.63
2023-05-13T17:29:42.797Z,92419.03
2023-05-13T17:32:15.300Z,92410.78
2023-05-13T17:34:48.296Z,92407.06
2023-05-13T17:37:20.699Z,92420.50
2023-05-13T17:39:56.889Z,92414.19
2023-05-13T17:42:29.624Z,92417.72
2023-05-13T17:45:02.806Z,92424.72
2023-05-13T17:47:35.196Z,92421.78
2023-05-13T17:50:14.155Z,92426.91
2023-05-13T17:52:46.483Z,92421.25
2023-05-13T17:55:18.782Z,92423.38
2023-05-13T17:57:54.793Z,92421.03
2023-05-13T18:00:27.201Z,92425.78
2023-05-13T18:02:59.577Z,92416.16
2023-05-13T18:05:32.781Z,92420.78
2023-05-13T18:08:06.085Z,92422.84
2023-05-13T18:10:38.427Z,92418.69
2023-05-13T18:13:11.100Z,92418.94
2023-05-13T18:15:45.594Z,92414.91
2023-05-13T18:18:17.975Z,92417.41
2023-05-13T18:20:53.334Z,92416.59
2023-05-13T18:23:25.629Z,92419.16
2023-05-13T18:25:57.947Z,92410.88
2023-05-13T18:28:30.252Z,92413.41
2023-05-13T18:31:04.806Z,92413.09
2023-05-13T18:33:37.129Z,92411.09
2023-05-13T18:36:10.434Z,92409.03
2023-05-13T18:38:47.112Z,92406.56
2023-05-13T18:41:19.472Z,92402.41
2023-05-13T18:43:51.778Z,92407.06
2023-05-13T18:46:24.254Z,92404.28
2023-05-13T18:48:56.549Z,92399.97
2023-05-13T18:51:37.183Z,92402.97
2023-05-13T18:54:09.512Z,92403.91
2023-05-13T18:56:44.864Z,92403.56
2023-05-13T18:59:17.207Z,92408.22
2023-05-13T19:01:49.604Z,92400.38
2023-05-13T19:04:22.117Z,92400.50
2023-05-13T19:06:55.416Z,92403.28
2023-05-13T19:09:30.390Z,92398.97
2023-05-13T19:12:02.818Z,92419.16
2023-05-13T19:14:35.200Z,92418.13
2023-05-13T19:17:07.551Z,92430.75
2023-05-13T19:19:40.354Z,92435.69
2023-05-13T19:22:13.399Z,92444.94
2023-05-13T19:24:45.847Z,92441.22
2023-05-13T19:27:18.345Z,92451.59
2023-05-13T19:29:50.656Z,92454.50
2023-05-13T19:32:25.578Z,92460.25
2023-05-13T19:34:57.928Z,92459.91
2023-05-13T19:37:31.070Z,92453.78
2023-05-13T19:40:04.157Z,92463.19
2023-05-13T19:42:36.522Z,92456.84
2023-05-13T19:45:09.961Z,92460.41
2023-05-13T19:47:42.392Z,92459.03
2023-05-13T19:50:15.323Z,92459.91
2023-05-13T19:52:48.373Z,92463.63
2023-05-13T19:55:20.731Z,92458.69
2023-05-13T19:57:56.124Z,92460.25
2023-05-13T20:00:28.992Z,92468.56
2023-05-13T20:03:03.794Z,92464.56
2023-05-13T20:05:36.240Z,92461.94
2023-05-13T20:08:09.227Z,92461.28
2023-05-13T20:10:41.619Z,92466.88
2023-05-13T20:13:13.962Z,92470.09
2023-05-13T20:15:46.314Z,92468.72
2023-05-13T20:18:21.662Z,92468.72
2023-05-13T20:20:54.013Z,92466.41
2023-05-13T20:23:34.498Z,92478.00
2023-05-13T20:26:06.881Z,92469.03
2023-05-13T20:28:42.275Z,92467.34
2023-05-13T20:31:14.636Z,92466.72
2023-05-13T20:33:46.972Z,92466.41
2023-05-13T20:36:19.237Z,92457.16
2023-05-13T20:38:52.305Z,92467.03
2023-05-13T20:41:24.695Z,92466.41
2023-05-13T20:43:56.974Z,92466.75
2023-05-13T20:46:29.278Z,92455.75
2023-05-13T20:49:02.070Z,92459.16
2023-05-13T20:51:34.532Z,92461.47
2023-05-13T20:54:08.715Z,92460.69
2023-05-13T20:56:41.232Z,92461.78
2023-05-13T20:59:13.530Z,92466.25
2023-05-13T21:01:46.722Z,92464.56
2023-05-13T21:04:19.209Z,92467.31
2023-05-13T21:06:51.716Z,92469.50
2023-05-13T21:09:24.701Z,92475.31
2023-05-13T21:12:15.279Z,92477.78
2023-05-13T21:14:47.592Z,92481.34
2023-05-13T21:17:20.853Z,92482.75
2023-05-13T21:19:53.144Z,92475.59
2023-05-13T21:22:25.448Z,92492.25
2023-05-13T21:24:58.402Z,92491.03
2023-05-13T21:27:30.686Z,92486.28
2023-05-13T21:30:03.276Z,92485.47
2023-05-13T21:32:36.643Z,92489.47
2023-05-13T21:35:09.104Z,92486.69
2023-05-13T21:37:41.345Z,92477.22
2023-05-13T21:40:14.589Z,92489.53
2023-05-13T21:42:46.865Z,92480.44
2023-05-13T21:45:19.946Z,92487.06
2023-05-13T21:47:52.245Z,92482.28
2023-05-13T21:50:39.402Z,92489.25
2023-05-13T21:53:11.709Z,92488.75
2023-05-13T21:55:44.772Z,92486.44
2023-05-13T21:58:17.016Z,92483.97
2023-05-13T22:00:49.547Z,92477.97
2023-05-13T22:03:22.702Z,92474.91
2023-05-13T22:05:55.168Z,92481.03
2023-05-13T22:08:27.530Z,92483.16
2023-05-13T22:11:00.832Z,92480.69
2023-05-13T22:13:33.170Z,92469.44
2023-05-13T22:16:05.823Z,92475.91
2023-05-13T22:18:38.652Z,92474.66
2023-05-13T22:21:11.077Z,92472.50
2023-05-13T22:23:43.382Z,92465.88
2023-05-13T22:26:16.364Z,92459.41
2023-05-13T22:28:48.768Z,92462.38
2023-05-13T22:31:21.134Z,92457.13
2023-05-13T22:33:53.491Z,92458.81
2023-05-13T22:36:25.770Z,92461.84
2023-05-13T22:38:58.063Z,92462.41
2023-05-13T22:41:30.992Z,92466.56
2023-05-13T22:44:03.359Z,92467.94
2023-05-13T22:46:35.800Z,92475.13
2023-05-13T22:49:09.597Z,92464.38
2023-05-13T22:51:42.340Z,92469.00
2023-05-13T22:54:14.750Z,92476.09
2023-05-13T22:56:47.706Z,92473.94
2023-05-13T22:59:20.125Z,92476.41
2023-05-13T23:01:52.470Z,92480.56
2023-05-13T23:04:24.946Z,92478.41
2023-05-13T23:06:57.398Z,92471.31
2023-05-13T23:09:29.781Z,92468.72
2023-05-13T23:12:03.116Z,92465.47
2023-05-13T23:14:35.452Z,92457.16
2023-05-13T23:17:08.605Z,92464.09
2023-05-13T23:19:40.976Z,92456.25
2023-05-13T23:22:13.222Z,92449.91
2023-05-13T23:24:45.511Z,92449.38
2023-05-13T23:27:18.483Z,92458.31
2023-05-13T23:29:50.805Z,92452.13
2023-05-13T23:32:23.538Z,92459.69
2023-05-13T23:34:55.962Z,92455.72
2023-05-13T23:37:28.296Z,92466.59
2023-05-13T23:40:01.621Z,92462.91
2023-05-13T23:42:35.300Z,92456.59
2023-05-13T23:45:08.987Z,92460.69
2023-05-13T23:47:41.323Z,92451.31
2023-05-13T23:50:13.667Z,92448.22
2023-05-13T23:52:50.356Z,92448.09
2023-05-13T23:55:22.733Z,92443.63
2023-05-13T23:57:55.685Z,92441.00
